• Join FlightAware (Why Join?)
  • Login
  • US Flag 
02:39AM EDT


 

Airport Tracker/Info


-or-


 

Live Flight TrackerFlight Track Log ✈ SWA34 ✈ 02-May-2013 ✈ KATL - KHOU

Flight Track Log - Related Links

Times and Time Zones

All times are in EDT time to prevent confusion due to time zone crossing. See the SWA34 flight status page for this flight to view local times or setup timezone preferences in your user account.

Time Position Orientation Groundspeed Altitude Reporting Facility
EDT Latitude Longitude Course Direction KTS MPH feet Rate Location/Type
12:53PM 33.6500 -84.3833 73° East 164 189 2,700  Level Atlanta TRACON
12:54PM 33.6667 -84.3167 73° East 225 259 4,300 2,160 Climbing Atlanta TRACON
12:55PM 33.7333 -84.2833 23° Northeast 298 343 6,900 2,280 Climbing Atlanta TRACON
12:57PM 33.8001 -84.3313 270° West  Level FlightAware Approximate
12:57PM 33.7706 -84.4711 270° West 260 299 12,700  Level Atlanta Center
12:58PM 33.7347 -84.5833 249° West 325 374 15,000 2,160 Climbing Atlanta Center
12:59PM 33.6944 -84.7031 248° West 361 415 17,100 2,100 Climbing Atlanta Center
01:00PM 33.6519 -84.8225 247° West 385 443 19,300 1,920 Climbing Atlanta Center
01:01PM 33.6050 -84.9592 248° West 399 459 21,000 1,620 Climbing Atlanta Center
01:02PM 33.5581 -85.0833 246° West 410 472 22,600 1,800 Climbing Atlanta Center
01:03PM 33.5153 -85.2097 248° West 415 478 24,600 1,560 Climbing Atlanta Center
01:04PM 33.4908 -85.3514 258° West 420 483 25,800 1,200 Climbing Atlanta Center
01:05PM 33.4683 -85.4956 259° West 443 510 27,100 1,200 Climbing Atlanta Center
01:06PM 33.4481 -85.6247 259° West 449 517 28,200 1,440 Climbing Atlanta Center
01:07PM 33.4253 -85.7711 259° West 449 517 30,000 1,740 Climbing Atlanta Center
01:08PM 33.4022 -85.9175 259° West 428 493 31,700 1,380 Climbing Atlanta Center
01:09PM 33.3792 -86.0539 259° West 428 493 32,800 1,200 Climbing Atlanta Center
01:10PM 33.3581 -86.1900 260° West 428 493 34,100 1,140 Climbing Atlanta Center
01:11PM 33.3367 -86.3264 259° West 428 493 35,100 900 Climbing Atlanta Center
01:12PM 33.3114 -86.4475 256° West 428 493 36,000 420 Climbing Atlanta Center
01:13PM 33.2939 -86.5911 262° West 416 479 36,000  Level Atlanta Center
01:14PM 33.2681 -86.7344 258° West 416 479 36,000  Level Atlanta Center
01:15PM 33.2442 -86.8628 257° West 419 482 36,000  Level Atlanta Center
01:16PM 33.2119 -86.9908 253° West 398 458 36,000  Level Atlanta Center
01:17PM 33.1697 -87.0986 245° Southwest 398 458 36,000  Level Atlanta Center
01:18PM 33.1269 -87.2261 248° West 410 472 36,000  Level Atlanta Center
01:19PM 33.0881 -87.3536 250° West 410 472 36,000  Level Atlanta Center
01:22PM 32.9850 -87.6603 248° West 416 479 36,000  Level Memphis Center
01:23PM 32.9439 -87.7853 249° West 416 479 36,000  Level Memphis Center
01:24PM 32.9083 -87.8878 248° West 416 479 36,000  Level Memphis Center
01:25PM 32.8692 -88.0297 252° West 416 479 36,000  Level Memphis Center
01:26PM 32.8236 -88.1547 247° West 416 479 36,000  Level Memphis Center
01:27PM 32.7819 -88.2792 248° West 416 479 36,000 -300 Level Memphis Center
01:28PM 32.7400 -88.4061 249° West 416 479 35,400 -840 Descending Memphis Center
01:29PM 32.6961 -88.5331 248° West 416 479 34,400 -960 Descending Memphis Center
01:30PM 32.6519 -88.6572 247° West 416 479 33,500 -960 Descending Memphis Center
01:31PM 32.6097 -88.7814 248° West 416 479 32,500 -780 Descending Memphis Center
01:32PM 32.5653 -88.9128 248° West 416 479 32,000 -300 Descending Memphis Center
01:33PM 32.5189 -89.0442 247° West 416 479 32,000  Level Memphis Center
01:34PM 32.4742 -89.1753 248° West 422 486 32,000  Level Memphis Center
01:35PM 32.4294 -89.3039 248° West 422 486 32,000  Level Memphis Center
01:36PM 32.3844 -89.4322 247° West 422 486 32,000  Level Memphis Center
01:37PM 32.3375 -89.5631 247° West 427 491 32,000  Level Memphis Center
01:38PM 32.2903 -89.6914 247° West 427 491 32,000  Level Memphis Center
01:39PM 32.2450 -89.8244 248° West 433 498 32,000  Level Memphis Center
01:40PM 32.1972 -89.9547 247° West 433 498 32,000  Level Memphis Center
01:41PM 32.1517 -90.0875 248° West 433 498 32,000  Level Memphis Center
01:42PM 32.1039 -90.2150 246° West 433 498 32,000  Level Memphis Center
01:43PM 32.0581 -90.3450 247° West 433 498 32,000  Level Memphis Center
01:44PM 32.0100 -90.4750 246° West 433 498 32,000  Level Memphis Center
01:46PM 31.9128 -90.7472 247° West 434 499 32,000  Level Houston Center
01:47PM 31.8619 -90.8903 247° West 433 498 32,000  Level Houston Center
01:48PM 31.8131 -91.0194 246° West 432 497 32,000 -60 Level Houston Center
01:49PM 31.7650 -91.1494 247° West 435 501 31,900  Descending Houston Center
01:50PM 31.7169 -91.2792 246° West 434 499 32,000  Climbing Houston Center
01:51PM 31.6697 -91.4078 247° West 432 497 32,000  Level Houston Center
01:52PM 31.6203 -91.5364 246° West 433 498 32,000  Level Houston Center
01:53PM 31.5631 -91.6917 247° West 433 498 32,000  Level Houston Center
01:54PM 31.5142 -91.8200 246° West 432 497 32,000  Level Houston Center
01:55PM 31.4667 -91.9494 247° West 434 499 32,000  Level Houston Center
01:56PM 31.4178 -92.0719 245° Southwest 430 495 32,000  Level Houston Center
01:57PM 31.3697 -92.2003 246° West 431 496 32,000  Level Houston Center
01:58PM 31.3119 -92.3528 246° West 430 495 32,000  Level Houston Center
01:59PM 31.2619 -92.4814 246° West 435 501 32,000  Level Houston Center
02:00PM 31.2142 -92.6083 246° West 433 498 32,000  Level Houston Center
02:01PM 31.1689 -92.7381 248° West 431 496 32,000  Level Houston Center
02:02PM 31.1217 -92.8656 247° West 429 494 32,000  Level Houston Center
02:03PM 31.0742 -92.9933 247° West 432 497 32,000  Level Houston Center
02:04PM 31.0175 -93.1450 246° West 428 493 32,000 -360 Level Houston Center
02:05PM 30.9697 -93.2725 246° West 431 496 31,300 -780 Descending Houston Center
02:06PM 30.9217 -93.4000 246° West 433 498 30,400 -960 Descending Houston Center
02:07PM 30.8736 -93.5292 247° West 438 504 29,400 -960 Descending Houston Center
02:08PM 30.8247 -93.6589 246° West 442 509 28,500 -1,020 Descending Houston Center
02:10PM 30.7656 -93.8133 246° West 440 506 27,300 -1,140 Descending Houston Center
02:11PM 30.7175 -93.9425 247° West 439 505 26,200 -1,080 Descending Houston Center
02:12PM 30.6706 -94.0642 246° West 421 484 25,100 -1,140 Descending Houston Center
02:12PM 30.6525 -94.1125 247° West 411 473 24,700 -1,020 Descending Houston Center
02:13PM 30.6244 -94.1831 245° Southwest 407 468 24,100 -1,020 Descending Houston Center
02:13PM 30.5972 -94.2536 246° West 396 456 23,500 -1,200 Descending Houston Center
02:14PM 30.5728 -94.3203 247° West 393 452 22,900 -1,380 Descending Houston Center
02:14PM 30.5486 -94.3792 245° Southwest 381 438 22,000 -1,860 Descending Houston Center
02:15PM 30.5303 -94.4303 247° West 381 438 21,000 -2,100 Descending Houston Center
02:15PM 30.5050 -94.4917 244° Southwest 374 430 19,900 -1,980 Descending Houston Center
02:16PM 30.4847 -94.5372 243° Southwest 371 427 19,000 -2,100 Descending Houston Center
02:16PM 30.4494 -94.5911 233° Southwest 365 420 17,800 -2,040 Descending Houston Center
02:17PM 30.4192 -94.6342 231° Southwest 363 418 16,900 -2,100 Descending Houston Center
02:17PM 30.3856 -94.6889 235° Southwest 358 412 15,700 -2,160 Descending Houston Center
02:18PM 30.3611 -94.7264 233° Southwest 357 411 14,700 -2,160 Descending Houston Center
02:18PM 30.3250 -94.7814 233° Southwest 351 404 13,500 -1,680 Descending Houston Center
02:19PM 30.3031 -94.8161 234° Southwest 351 404 13,000 -1,140 Descending Houston Center
02:19PM 30.2681 -94.8686 232° Southwest 341 392 12,400 -900 Descending Houston Center
02:20PM 30.2472 -94.9031 235° Southwest 340 391 12,100 -900 Descending Houston Center
02:20PM 30.2169 -94.9500 233° Southwest 337 388 11,600 -1,200 Descending Houston Center
02:21PM 30.1792 -95.0075 233° Southwest 341 392 10,900 -1,020 Descending Houston Center
02:21PM 30.1581 -95.0369 230° Southwest 342 394 10,600 -900 Descending Houston Center
02:22PM 30.1119 -95.0825 221° Southwest 344 396 10,000 -720 Descending Houston Center
02:22PM 30.0775 -95.0978 201° Southwest 331 381 9,900 -720 Descending Houston Center
02:23PM 30.0294 -95.1172 199° South 321 369 9,300 -1,200 Descending Houston Center
02:23PM 29.9886 -95.1353 201° Southwest 298 343 8,600 -1,260 Descending Houston Center
02:24PM 29.9511 -95.1500 199° South 303 349 8,000 -600 Descending Houston Center
02:24PM 29.9117 -95.1664 200° South 294 338 8,000 -120 Level Houston Center
02:25PM 29.8772 -95.1819 201° Southwest 289 333 7,900 -720 Descending Houston Center
02:25PM 29.8411 -95.1967 199° South 255 293 7,300 -1,080 Descending Houston Center
02:26PM 29.8128 -95.2108 203° Southwest 254 292 6,800 -1,200 Descending Houston Center
02:26PM 29.7744 -95.2264 199° South 249 287 6,100 -780 Descending Houston Center
02:27PM 29.7336 -95.2311 186° South 262 302 6,000 -420 Descending Houston Center
02:27PM 29.7161 -95.2094 133° Southeast 239 275 5,700 -1,260 Descending Houston Center
02:28PM 29.6897 -95.1694 127° Southeast 248 285 4,700 -1,200 Descending Houston Center
02:29PM 29.6256 -95.0931 134° Southeast 244 281 3,300 -900 Descending Houston Center
02:30PM 29.5786 -95.0872 174° South 252 290 2,900 -720 Descending Houston Center
02:31PM 29.5594 -95.1036 217° Southwest 239 275 2,600 -720 Descending Houston Center
02:31PM 29.5569 -95.1483 266° West 231 266 2,200 -540 Descending Houston Center
02:32PM 29.5572 -95.1711 271° West 197 227 2,100 -420 Descending Houston Center
02:32PM 29.5750 -95.1961 309° West 196 226 1,800 -720 Descending Houston Center
02:33PM 29.6053 -95.2319 314° West 169 194 900 -780 Descending Houston Center
02:34PM 29.6308 -95.2625 314° West 148 170 200 -420 Descending Houston Center
02:35PM 29.6572 -95.2931 315° West 145 167 100 -120 Descending Houston Center